createdAt,value
2019-03-23T00:02:16.876Z,84.17
2019-03-23T00:04:45.174Z,80.60
2019-03-23T00:07:13.520Z,63.73
2019-03-23T00:09:41.862Z,51.70
2019-03-23T00:12:10.145Z,47.27
2019-03-23T00:14:38.393Z,45.73
2019-03-23T00:17:06.676Z,44.73
2019-03-23T00:19:35.038Z,43.83
2019-03-23T00:22:03.518Z,44.40
2019-03-23T00:24:31.797Z,42.63
2019-03-23T00:27:00.328Z,41.33
2019-03-23T00:29:28.698Z,42.73
2019-03-23T00:31:57.044Z,42.80
2019-03-23T00:34:25.362Z,43.10
2019-03-23T00:36:53.713Z,44.47
2019-03-23T00:39:21.937Z,42.47
2019-03-23T00:41:50.831Z,43.60
2019-03-23T00:44:19.156Z,43.83
2019-03-23T00:46:47.534Z,44.57
2019-03-23T00:49:15.966Z,44.67
2019-03-23T00:51:44.404Z,43.90
2019-03-23T00:54:12.674Z,42.80
2019-03-23T00:56:41.130Z,43.63
2019-03-23T00:59:09.470Z,42.73
2019-03-23T01:01:37.916Z,43.20
2019-03-23T01:04:06.147Z,40.87
2019-03-23T01:06:35.010Z,41.60
2019-03-23T01:09:04.930Z,42.07
2019-03-23T01:11:33.340Z,43.23
2019-03-23T01:14:01.599Z,41.63
2019-03-23T01:16:29.991Z,42.37
2019-03-23T01:18:58.458Z,42.10
2019-03-23T01:21:27.086Z,41.33
2019-03-23T01:23:55.466Z,42.13
2019-03-23T01:26:23.763Z,40.00
2019-03-23T01:28:52.030Z,42.07
2019-03-23T01:31:20.339Z,42.43
2019-03-23T01:33:48.589Z,42.50
2019-03-23T01:36:16.896Z,41.03
2019-03-23T01:38:45.151Z,41.97
2019-03-23T01:41:13.583Z,41.17
2019-03-23T01:43:41.911Z,40.13
2019-03-23T01:46:10.903Z,40.87
2019-03-23T01:48:39.204Z,40.67
2019-03-23T01:51:08.675Z,41.23
2019-03-23T01:53:36.895Z,41.00
2019-03-23T01:56:05.246Z,41.90
2019-03-23T01:58:33.605Z,42.03
2019-03-23T02:01:01.870Z,40.37
2019-03-23T02:03:30.697Z,38.50
2019-03-23T02:05:58.992Z,38.50
2019-03-23T02:08:31.799Z,38.60
2019-03-23T02:11:00.161Z,37.57
2019-03-23T02:13:28.459Z,37.98
2019-03-23T02:15:56.689Z,38.30
2019-03-23T02:18:24.996Z,37.20
2019-03-23T02:20:53.922Z,38.63
2019-03-23T02:23:22.739Z,37.17
2019-03-23T02:25:51.021Z,38.60
2019-03-23T02:28:19.317Z,39.17
2019-03-23T02:30:47.647Z,39.70
2019-03-23T02:33:15.969Z,37.57
2019-03-23T02:35:44.249Z,38.27
2019-03-23T02:38:12.649Z,38.27
2019-03-23T02:40:41.070Z,37.97
2019-03-23T02:43:09.512Z,37.13
2019-03-23T02:45:37.883Z,36.57
2019-03-23T02:48:06.915Z,36.65
2019-03-23T02:50:35.172Z,35.37
2019-03-23T02:53:03.624Z,36.40
2019-03-23T02:55:31.876Z,37.17
2019-03-23T02:58:00.169Z,35.77
2019-03-23T03:00:28.435Z,35.47
2019-03-23T03:02:56.818Z,32.77
2019-03-23T03:05:25.070Z,35.13
2019-03-23T03:07:53.394Z,36.40
2019-03-23T03:10:49.805Z,38.60
2019-03-23T03:13:18.131Z,39.63
2019-03-23T03:15:46.405Z,39.50
2019-03-23T03:18:14.702Z,37.73
2019-03-23T03:20:42.989Z,38.97
2019-03-23T03:23:11.270Z,36.23
2019-03-23T03:25:39.625Z,35.63
2019-03-23T03:28:07.953Z,36.03
2019-03-23T03:30:36.313Z,37.37
2019-03-23T03:33:05.323Z,35.20
2019-03-23T03:35:33.544Z,35.67
2019-03-23T03:38:01.805Z,35.93
2019-03-23T03:40:30.152Z,35.80
2019-03-23T03:42:58.630Z,35.07
2019-03-23T03:45:27.520Z,36.57
2019-03-23T03:47:56.328Z,35.90
2019-03-23T03:50:24.773Z,35.77
2019-03-23T03:52:53.925Z,35.67
2019-03-23T03:55:23.295Z,36.30
2019-03-23T03:57:52.002Z,33.07
2019-03-23T04:00:20.453Z,34.57
2019-03-23T04:02:48.684Z,34.23
2019-03-23T04:05:17.118Z,33.30
2019-03-23T04:07:45.490Z,32.23
2019-03-23T04:10:13.897Z,30.43
2019-03-23T04:12:53.171Z,33.45
2019-03-23T04:15:21.447Z,39.33
2019-03-23T04:17:49.688Z,37.67
2019-03-23T04:20:18.102Z,43.58
2019-03-23T04:22:46.553Z,48.00
2019-03-23T04:25:14.931Z,42.63
2019-03-23T04:27:43.164Z,41.30
2019-03-23T04:30:12.013Z,43.23
2019-03-23T04:32:40.437Z,42.17
2019-03-23T04:35:08.926Z,40.52
2019-03-23T04:37:37.141Z,43.53
2019-03-23T04:40:06.111Z,43.67
2019-03-23T04:42:34.405Z,43.53
2019-03-23T04:45:03.564Z,41.00
2019-03-23T04:47:31.969Z,40.75
2019-03-23T04:50:00.904Z,39.73
2019-03-23T04:52:29.392Z,38.27
2019-03-23T04:54:58.347Z,37.97
2019-03-23T04:57:26.590Z,39.53
2019-03-23T04:59:54.888Z,38.70
2019-03-23T05:02:23.160Z,35.83
2019-03-23T05:04:51.465Z,35.83
2019-03-23T05:07:19.790Z,39.50
2019-03-23T05:09:48.083Z,39.17
2019-03-23T05:12:17.444Z,37.07
2019-03-23T05:14:48.729Z,39.37
2019-03-23T05:17:17.082Z,38.70
2019-03-23T05:19:46.118Z,37.83
2019-03-23T05:22:14.565Z,39.00
2019-03-23T05:24:42.884Z,41.20
2019-03-23T05:27:11.150Z,42.55
2019-03-23T05:29:40.774Z,43.63
2019-03-23T05:32:09.011Z,43.40
2019-03-23T05:34:37.340Z,45.70
2019-03-23T05:37:05.608Z,46.47
2019-03-23T05:39:33.913Z,49.80
2019-03-23T05:42:02.179Z,46.35
2019-03-23T05:44:30.481Z,44.43
2019-03-23T05:46:59.055Z,41.83
2019-03-23T05:49:27.401Z,42.90
2019-03-23T05:51:55.749Z,42.60
2019-03-23T05:54:24.071Z,42.77
2019-03-23T05:56:52.344Z,42.53
2019-03-23T05:59:21.145Z,44.18
2019-03-23T06:01:49.468Z,43.33
2019-03-23T06:04:17.748Z,41.53
2019-03-23T06:06:46.085Z,41.80
2019-03-23T06:09:14.471Z,41.67
2019-03-23T06:11:42.792Z,44.07
2019-03-23T06:14:11.953Z,44.37
2019-03-23T06:16:42.316Z,44.42
2019-03-23T06:19:10.667Z,45.10
2019-03-23T06:21:39.014Z,45.03
2019-03-23T06:24:07.258Z,45.77
2019-03-23T06:26:35.570Z,49.23
2019-03-23T06:29:03.915Z,48.83
2019-03-23T06:31:32.242Z,50.10
2019-03-23T06:34:00.496Z,49.93
2019-03-23T06:36:28.827Z,49.60
2019-03-23T06:39:05.174Z,50.65
2019-03-23T06:41:27.266Z,51.53
2019-03-23T06:43:55.515Z,51.18
2019-03-23T06:46:23.840Z,54.40
2019-03-23T06:48:52.156Z,53.67
2019-03-23T06:51:20.495Z,52.67
2019-03-23T06:53:48.797Z,52.27
2019-03-23T06:56:17.121Z,51.70
2019-03-23T06:58:45.379Z,51.90
2019-03-23T07:01:13.738Z,52.40
2019-03-23T07:03:42.097Z,50.70
2019-03-23T07:06:10.428Z,53.40
2019-03-23T07:08:38.720Z,51.63
2019-03-23T07:11:07.162Z,50.73
2019-03-23T07:13:35.431Z,50.13
2019-03-23T07:16:04.528Z,48.47
2019-03-23T07:18:32.833Z,49.57
2019-03-23T07:21:01.152Z,49.30
2019-03-23T07:23:30.292Z,51.30
2019-03-23T07:25:58.601Z,50.53
2019-03-23T07:28:26.858Z,51.07
2019-03-23T07:30:55.198Z,49.20
2019-03-23T07:33:23.472Z,49.93
2019-03-23T07:35:51.802Z,49.70
2019-03-23T07:38:20.043Z,48.30
2019-03-23T07:40:48.479Z,48.30
2019-03-23T07:43:16.758Z,46.53
2019-03-23T07:45:45.028Z,46.77
2019-03-23T07:48:13.357Z,46.67
2019-03-23T07:50:42.100Z,47.80
2019-03-23T07:53:10.989Z,45.23
2019-03-23T07:55:39.472Z,45.87
2019-03-23T07:58:08.647Z,44.40
2019-03-23T08:00:37.008Z,43.83
2019-03-23T08:03:05.504Z,43.47
2019-03-23T08:05:33.901Z,42.60
2019-03-23T08:08:02.221Z,43.37
2019-03-23T08:10:31.994Z,42.60
2019-03-23T08:13:00.492Z,42.47
2019-03-23T08:15:28.969Z,41.63
2019-03-23T08:17:57.425Z,41.23
2019-03-23T08:20:25.862Z,44.17
2019-03-23T08:22:54.708Z,42.00
2019-03-23T08:25:23.306Z,44.80
2019-03-23T08:27:51.750Z,85.37
2019-03-23T08:30:21.046Z,51.50
2019-03-23T08:32:49.622Z,65.17
2019-03-23T08:35:17.904Z,49.77
2019-03-23T08:37:46.325Z,52.70
2019-03-23T08:40:14.605Z,51.70
2019-03-23T08:42:42.893Z,44.10
2019-03-23T08:45:11.435Z,52.87
2019-03-23T08:47:39.756Z,53.43
2019-03-23T08:50:08.327Z,46.23
2019-03-23T08:52:36.847Z,43.90
2019-03-23T08:55:05.344Z,44.40
2019-03-23T08:57:33.636Z,46.73
2019-03-23T09:00:01.897Z,42.40
2019-03-23T09:02:30.209Z,41.67
2019-03-23T09:04:58.491Z,40.33
2019-03-23T09:07:26.803Z,42.60
2019-03-23T09:09:59.393Z,38.90
2019-03-23T09:12:26.087Z,40.00
2019-03-23T09:14:54.385Z,39.63
2019-03-23T09:17:22.665Z,37.73
2019-03-23T09:19:51.802Z,39.57
2019-03-23T09:22:20.910Z,39.20
2019-03-23T09:24:49.281Z,36.53
2019-03-23T09:27:17.720Z,36.50
2019-03-23T09:29:45.974Z,38.07
2019-03-23T09:32:14.582Z,38.03
2019-03-23T09:34:42.914Z,37.27
2019-03-23T09:37:11.319Z,35.97
2019-03-23T09:39:39.716Z,38.50
2019-03-23T09:42:07.948Z,36.20
2019-03-23T09:44:37.940Z,36.90
2019-03-23T09:47:06.391Z,37.63
2019-03-23T09:49:34.796Z,35.10
2019-03-23T09:52:04.067Z,35.60
2019-03-23T09:54:36.430Z,37.23
2019-03-23T09:57:04.895Z,35.53
2019-03-23T09:59:33.219Z,34.53
2019-03-23T10:02:01.679Z,33.53
2019-03-23T10:04:30.112Z,34.83
2019-03-23T10:06:58.386Z,34.90
2019-03-23T10:09:26.844Z,34.17
2019-03-23T10:11:55.554Z,32.57
2019-03-23T10:14:23.848Z,32.10
2019-03-23T10:16:52.216Z,32.20
2019-03-23T10:19:20.511Z,32.00
2019-03-23T10:21:48.857Z,31.50
2019-03-23T10:24:17.282Z,30.63
2019-03-23T10:26:45.737Z,28.27
2019-03-23T10:29:14.075Z,29.17
2019-03-23T10:31:42.304Z,31.93
2019-03-23T10:34:10.637Z,30.87
2019-03-23T10:36:38.961Z,30.43
2019-03-23T10:39:07.268Z,29.17
2019-03-23T10:41:35.631Z,28.83
2019-03-23T10:44:04.020Z,27.77
2019-03-23T10:46:32.365Z,29.57
2019-03-23T10:49:00.669Z,26.90
2019-03-23T10:51:28.985Z,27.03
2019-03-23T10:53:57.521Z,26.93
2019-03-23T10:56:35.806Z,25.40
2019-03-23T10:59:04.193Z,29.30
2019-03-23T11:01:32.465Z,27.43
2019-03-23T11:04:00.727Z,27.37
2019-03-23T11:06:29.829Z,26.33
2019-03-23T11:08:58.113Z,26.40
2019-03-23T11:11:26.457Z,24.73
2019-03-23T11:13:54.829Z,23.73
2019-03-23T11:16:23.609Z,24.20
2019-03-23T11:18:52.046Z,23.70
2019-03-23T11:21:20.325Z,24.17
2019-03-23T11:23:48.620Z,23.00
2019-03-23T11:26:16.886Z,21.33
2019-03-23T11:28:45.228Z,23.23
2019-03-23T11:31:13.721Z,23.17
2019-03-23T11:33:41.972Z,23.47
2019-03-23T11:36:10.525Z,24.43
2019-03-23T11:38:39.376Z,23.60
2019-03-23T11:41:07.660Z,22.87
2019-03-23T11:43:35.886Z,22.73
2019-03-23T11:46:04.406Z,21.80
2019-03-23T11:48:32.699Z,20.33
2019-03-23T11:51:01.653Z,19.20
2019-03-23T11:53:30.585Z,17.43
2019-03-23T11:55:58.880Z,19.43
2019-03-23T11:58:27.154Z,17.70
2019-03-23T12:00:55.491Z,16.20
2019-03-23T12:03:23.729Z,18.17
2019-03-23T12:05:52.119Z,17.93
2019-03-23T12:08:20.382Z,16.87
2019-03-23T12:10:48.718Z,19.00
2019-03-23T12:13:16.976Z,18.33
2019-03-23T12:15:45.264Z,17.00
2019-03-23T12:18:13.731Z,15.93
2019-03-23T12:20:43.409Z,17.77
2019-03-23T12:23:11.767Z,15.97
2019-03-23T12:25:40.250Z,16.40
2019-03-23T12:28:09.380Z,14.40
2019-03-23T12:30:38.049Z,14.63
2019-03-23T12:33:07.037Z,11.83
2019-03-23T12:35:35.360Z,11.00
2019-03-23T12:38:03.699Z,10.83
2019-03-23T12:40:32.016Z,10.87
2019-03-23T12:43:00.265Z,11.70
2019-03-23T12:45:28.762Z,11.60
2019-03-23T12:47:56.994Z,11.50
2019-03-23T12:50:25.850Z,10.97
2019-03-23T12:52:54.263Z,12.40
2019-03-23T12:55:22.564Z,12.73
2019-03-23T12:57:50.845Z,11.43
2019-03-23T13:00:19.380Z,11.53
2019-03-23T13:02:47.748Z,10.67
2019-03-23T13:05:16.041Z,12.23
2019-03-23T13:07:44.282Z,10.63
2019-03-23T13:10:12.982Z,10.63
2019-03-23T13:12:41.415Z,10.87
2019-03-23T13:15:10.733Z,11.47
2019-03-23T13:17:39.090Z,11.20
2019-03-23T13:20:08.817Z,12.33
2019-03-23T13:22:37.363Z,10.83
2019-03-23T13:25:07.205Z,10.77
2019-03-23T13:27:35.589Z,12.00
2019-03-23T13:30:04.825Z,11.73
2019-03-23T13:32:33.103Z,11.33
2019-03-23T13:35:01.344Z,11.63
2019-03-23T13:37:29.631Z,12.23
2019-03-23T13:39:57.866Z,13.40
2019-03-23T13:42:26.177Z,11.77
2019-03-23T13:44:54.503Z,12.00
2019-03-23T13:47:22.811Z,12.83
2019-03-23T13:49:51.080Z,13.87
2019-03-23T13:52:19.419Z,58.07
2019-03-23T13:54:47.708Z,14.53
2019-03-23T13:57:16.259Z,15.50
2019-03-23T13:59:44.492Z,17.87
2019-03-23T14:02:12.854Z,14.40
2019-03-23T14:04:41.154Z,19.80
2019-03-23T14:07:09.616Z,13.17
2019-03-23T14:09:37.858Z,11.77
2019-03-23T14:12:06.384Z,13.07
2019-03-23T14:14:34.682Z,14.60
2019-03-23T14:17:03.237Z,11.73
2019-03-23T14:19:31.625Z,12.93
2019-03-23T14:22:00.387Z,11.90
2019-03-23T14:24:28.658Z,11.70
2019-03-23T14:26:56.953Z,12.53
2019-03-23T14:29:25.219Z,13.07
2019-03-23T14:31:53.492Z,9.90
2019-03-23T14:34:21.829Z,13.30
2019-03-23T14:36:50.123Z,13.33
2019-03-23T14:39:18.374Z,10.83
2019-03-23T14:41:46.650Z,14.17
2019-03-23T14:44:14.871Z,14.37
2019-03-23T14:46:43.183Z,14.57
2019-03-23T14:49:11.525Z,14.37
2019-03-23T14:51:39.869Z,14.37
2019-03-23T14:54:08.195Z,11.87
2019-03-23T14:56:36.655Z,12.33
2019-03-23T14:59:04.995Z,12.53
2019-03-23T15:01:33.350Z,15.20
2019-03-23T15:04:01.545Z,13.27
2019-03-23T15:06:29.739Z,15.87
2019-03-23T15:08:58.234Z,12.03
2019-03-23T15:11:26.486Z,11.10
2019-03-23T15:13:54.891Z,12.43
2019-03-23T15:16:23.198Z,11.70
2019-03-23T15:18:52.510Z,11.87
2019-03-23T15:21:20.784Z,11.77
2019-03-23T15:23:49.198Z,12.80
2019-03-23T15:26:17.539Z,12.67
2019-03-23T15:28:45.915Z,15.17
2019-03-23T15:31:14.171Z,14.13
2019-03-23T15:33:44.376Z,18.53
2019-03-23T15:36:24.839Z,17.20
2019-03-23T15:38:53.107Z,14.57
2019-03-23T15:41:21.566Z,14.00
2019-03-23T15:43:49.841Z,14.97
2019-03-23T15:46:18.168Z,12.90
2019-03-23T15:48:46.481Z,13.17
2019-03-23T15:51:14.865Z,11.80
2019-03-23T15:53:43.177Z,14.77
2019-03-23T15:56:11.423Z,12.93
2019-03-23T15:58:39.754Z,14.23
2019-03-23T16:01:08.517Z,15.90
2019-03-23T16:03:36.908Z,16.00
2019-03-23T16:06:05.276Z,14.80
2019-03-23T16:08:33.582Z,15.37
2019-03-23T16:11:01.833Z,15.17
2019-03-23T16:13:30.174Z,14.17
2019-03-23T16:15:58.398Z,15.90
2019-03-23T16:18:26.803Z,14.30
2019-03-23T16:20:55.043Z,14.43
2019-03-23T16:23:23.362Z,14.70
2019-03-23T16:25:51.734Z,15.30
2019-03-23T16:28:20.039Z,20.63
2019-03-23T16:30:48.298Z,29.80
2019-03-23T16:33:16.608Z,56.37
2019-03-23T16:35:44.847Z,55.93
2019-03-23T16:38:13.129Z,73.43
2019-03-23T16:40:41.480Z,63.53
2019-03-23T16:43:09.840Z,53.23
2019-03-23T16:45:38.152Z,34.83
2019-03-23T16:48:06.378Z,42.67
2019-03-23T16:50:34.655Z,33.73
2019-03-23T16:53:03.203Z,22.30
2019-03-23T16:55:31.486Z,14.23
2019-03-23T16:57:59.807Z,15.60
2019-03-23T17:00:35.860Z,21.93
2019-03-23T17:03:04.478Z,25.73
2019-03-23T17:05:32.868Z,18.90
2019-03-23T17:08:01.126Z,16.27
2019-03-23T17:10:29.599Z,16.93
2019-03-23T17:12:57.831Z,18.00
2019-03-23T17:15:26.135Z,18.97
2019-03-23T17:17:54.346Z,19.87
2019-03-23T17:20:22.627Z,20.30
2019-03-23T17:22:50.863Z,19.70
2019-03-23T17:25:19.156Z,18.83
2019-03-23T17:27:47.433Z,18.70
2019-03-23T17:30:15.928Z,19.57
2019-03-23T17:32:44.265Z,18.07
2019-03-23T17:35:12.743Z,20.30
2019-03-23T17:37:40.993Z,19.63
2019-03-23T17:40:09.505Z,22.20
2019-03-23T17:42:37.752Z,97.80
2019-03-23T17:45:06.406Z,41.03
2019-03-23T17:47:34.774Z,37.20
2019-03-23T17:50:03.173Z,21.90
2019-03-23T17:52:31.470Z,22.03
2019-03-23T17:54:59.740Z,22.20
2019-03-23T17:57:28.001Z,20.50
2019-03-23T17:59:56.266Z,26.30
2019-03-23T18:02:24.590Z,24.70
2019-03-23T18:04:52.925Z,22.27
2019-03-23T18:07:21.355Z,26.17
2019-03-23T18:09:51.392Z,27.60
2019-03-23T18:12:19.658Z,22.57
2019-03-23T18:14:47.964Z,20.13
2019-03-23T18:17:16.201Z,20.77
2019-03-23T18:19:46.460Z,21.87
2019-03-23T18:22:14.701Z,24.67
2019-03-23T18:24:43.011Z,23.13
2019-03-23T18:27:11.272Z,23.80
2019-03-23T18:29:40.672Z,24.83
2019-03-23T18:32:08.961Z,24.33
2019-03-23T18:34:37.176Z,25.63
2019-03-23T18:37:06.203Z,26.80
2019-03-23T18:39:34.533Z,29.17
2019-03-23T18:42:09.317Z,33.40
2019-03-23T18:44:37.638Z,33.13
2019-03-23T18:47:06.056Z,34.83
2019-03-23T18:49:36.365Z,38.10
2019-03-23T18:52:04.975Z,36.53
2019-03-23T18:54:33.287Z,45.10
2019-03-23T18:57:01.677Z,48.93
2019-03-23T18:59:30.037Z,40.40
2019-03-23T19:01:58.362Z,47.00
2019-03-23T19:04:26.724Z,59.40
2019-03-23T19:06:55.098Z,57.97
2019-03-23T19:09:23.353Z,52.63
2019-03-23T19:11:52.044Z,52.30
2019-03-23T19:14:20.305Z,48.70
2019-03-23T19:16:48.842Z,49.70
2019-03-23T19:19:17.890Z,48.80
2019-03-23T19:21:46.204Z,49.07
2019-03-23T19:24:14.530Z,51.47
2019-03-23T19:26:43.362Z,46.10
2019-03-23T19:29:11.569Z,54.80
2019-03-23T19:31:39.822Z,48.50
2019-03-23T19:34:08.737Z,25.13
2019-03-23T19:36:37.050Z,19.77
2019-03-23T19:39:08.393Z,19.87
2019-03-23T19:41:37.893Z,20.97
2019-03-23T19:44:07.686Z,28.10
2019-03-23T19:46:36.402Z,30.80
2019-03-23T19:49:04.706Z,33.30
2019-03-23T19:51:33.205Z,34.73
2019-03-23T19:54:01.812Z,37.20
2019-03-23T19:56:30.143Z,38.73
2019-03-23T19:58:58.513Z,38.70
2019-03-23T20:01:27.595Z,36.70
2019-03-23T20:03:55.996Z,40.20
2019-03-23T20:06:24.510Z,43.63
2019-03-23T20:08:53.254Z,42.00
2019-03-23T20:11:21.964Z,44.07
2019-03-23T20:13:58.400Z,44.10
2019-03-23T20:16:21.034Z,44.50
2019-03-23T20:18:49.524Z,45.47
2019-03-23T20:21:18.882Z,46.37
2019-03-23T20:23:47.915Z,43.10
2019-03-23T20:26:17.124Z,39.93
2019-03-23T20:28:45.409Z,34.80
2019-03-23T20:31:13.795Z,35.00
2019-03-23T20:33:43.533Z,36.93
2019-03-23T20:36:11.876Z,35.17
2019-03-23T20:38:40.373Z,35.07
2019-03-23T20:41:08.587Z,36.63
2019-03-23T20:43:37.366Z,38.57
2019-03-23T20:46:06.018Z,37.33
2019-03-23T20:48:36.462Z,38.93
2019-03-23T20:51:04.833Z,40.70
2019-03-23T20:53:33.552Z,39.23
2019-03-23T20:56:02.016Z,38.13
2019-03-23T20:58:30.572Z,37.00
2019-03-23T21:00:59.078Z,35.03
2019-03-23T21:03:27.416Z,35.73
2019-03-23T21:05:55.911Z,37.13
2019-03-23T21:08:24.222Z,36.77
2019-03-23T21:10:52.772Z,34.90
2019-03-23T21:13:22.480Z,36.30
2019-03-23T21:15:50.777Z,33.27
2019-03-23T21:18:19.294Z,35.00
2019-03-23T21:20:47.614Z,34.80
2019-03-23T21:23:16.030Z,29.50
2019-03-23T21:25:44.706Z,31.33
2019-03-23T21:28:13.235Z,31.47
2019-03-23T21:30:41.488Z,28.70
2019-03-23T21:33:09.966Z,27.13
2019-03-23T21:35:38.308Z,28.67
2019-03-23T21:38:06.752Z,27.10
2019-03-23T21:40:35.297Z,26.43
2019-03-23T21:43:03.964Z,26.93
2019-03-23T21:45:32.369Z,26.90
2019-03-23T21:48:00.935Z,27.40
2019-03-23T21:50:29.371Z,26.73
2019-03-23T21:52:57.679Z,26.97
2019-03-23T21:55:26.095Z,29.07
2019-03-23T21:57:54.439Z,27.03
2019-03-23T22:00:31.315Z,28.43
2019-03-23T22:02:59.956Z,26.27
2019-03-23T22:05:28.357Z,28.17
2019-03-23T22:07:56.681Z,27.93
2019-03-23T22:10:26.131Z,26.07
2019-03-23T22:12:54.600Z,25.73
2019-03-23T22:15:23.111Z,24.57
2019-03-23T22:17:51.446Z,23.57
2019-03-23T22:20:19.729Z,22.80
2019-03-23T22:22:48.175Z,22.10
2019-03-23T22:25:16.404Z,22.63
2019-03-23T22:27:44.743Z,22.67
2019-03-23T22:30:13.555Z,22.27
2019-03-23T22:32:41.910Z,22.47
2019-03-23T22:35:11.385Z,22.53
2019-03-23T22:37:39.941Z,21.17
2019-03-23T22:40:09.130Z,22.63
2019-03-23T22:42:38.529Z,21.97
2019-03-23T22:45:08.754Z,22.73
2019-03-23T22:47:37.007Z,22.47
2019-03-23T22:50:06.212Z,21.33
2019-03-23T22:52:34.570Z,20.57
2019-03-23T22:55:03.358Z,23.27
2019-03-23T22:57:31.675Z,22.00
2019-03-23T23:00:00.345Z,21.43
2019-03-23T23:02:28.859Z,22.13
2019-03-23T23:04:57.191Z,21.27
2019-03-23T23:07:25.436Z,22.37
2019-03-23T23:09:53.727Z,21.57
2019-03-23T23:12:21.975Z,23.57
2019-03-23T23:14:52.529Z,22.70
2019-03-23T23:17:21.057Z,23.20
2019-03-23T23:19:49.316Z,22.10
2019-03-23T23:22:19.363Z,22.87
2019-03-23T23:24:47.618Z,23.00
2019-03-23T23:27:15.835Z,22.37
2019-03-23T23:29:44.124Z,23.00
2019-03-23T23:32:12.499Z,22.07
2019-03-23T23:34:40.865Z,23.93
2019-03-23T23:37:09.114Z,24.07
2019-03-23T23:39:37.536Z,23.23
2019-03-23T23:42:05.819Z,24.33
2019-03-23T23:44:34.122Z,24.67
2019-03-23T23:47:02.371Z,24.87
2019-03-23T23:49:30.684Z,25.43
2019-03-23T23:51:58.910Z,25.03
2019-03-23T23:54:27.275Z,26.60
2019-03-23T23:56:55.569Z,25.90
2019-03-23T23:59:23.848Z,25.40
